sensor_id;sensor_type;location;lat;lon;timestamp;P1;durP1;ratioP1;P2;durP2;ratioP2
1879;SDS011;49285;49.002;8.390;2024-02-21T00:00:53;13.20;;;5.57;;
1879;SDS011;49285;49.002;8.390;2024-02-21T00:03:18;10.30;;;4.93;;
1879;SDS011;49285;49.002;8.390;2024-02-21T00:05:44;14.43;;;6.37;;
1879;SDS011;49285;49.002;8.390;2024-02-21T00:08:10;10.63;;;5.40;;
1879;SDS011;49285;49.002;8.390;2024-02-21T00:10:38;17.27;;;6.77;;
1879;SDS011;49285;49.002;8.390;2024-02-21T00:13:03;10.30;;;5.73;;
1879;SDS011;49285;49.002;8.390;2024-02-21T00:15:29;9.60;;;5.37;;
1879;SDS011;49285;49.002;8.390;2024-02-21T00:17:55;9.80;;;5.50;;
1879;SDS011;49285;49.002;8.390;2024-02-21T00:20:20;11.47;;;5.53;;
1879;SDS011;49285;49.002;8.390;2024-02-21T00:22:46;10.50;;;5.57;;
1879;SDS011;49285;49.002;8.390;2024-02-21T00:25:12;17.63;;;5.77;;
1879;SDS011;49285;49.002;8.390;2024-02-21T00:27:37;8.50;;;4.90;;
1879;SDS011;49285;49.002;8.390;2024-02-21T00:30:04;14.13;;;5.33;;
1879;SDS011;49285;49.002;8.390;2024-02-21T00:32:30;12.40;;;5.10;;
1879;SDS011;49285;49.002;8.390;2024-02-21T00:34:57;9.23;;;5.77;;
1879;SDS011;49285;49.002;8.390;2024-02-21T00:37:22;15.70;;;5.87;;
1879;SDS011;49285;49.002;8.390;2024-02-21T00:39:48;12.97;;;5.80;;
1879;SDS011;49285;49.002;8.390;2024-02-21T00:42:13;7.73;;;4.30;;
1879;SDS011;49285;49.002;8.390;2024-02-21T00:44:39;13.83;;;5.40;;
1879;SDS011;49285;49.002;8.390;2024-02-21T00:47:05;13.03;;;5.00;;
1879;SDS011;49285;49.002;8.390;2024-02-21T00:49:30;10.90;;;5.00;;
1879;SDS011;49285;49.002;8.390;2024-02-21T00:51:56;8.47;;;5.20;;
1879;SDS011;49285;49.002;8.390;2024-02-21T00:54:21;8.27;;;5.73;;
1879;SDS011;49285;49.002;8.390;2024-02-21T00:56:47;6.93;;;4.17;;
1879;SDS011;49285;49.002;8.390;2024-02-21T00:59:13;13.80;;;5.20;;
1879;SDS011;49285;49.002;8.390;2024-02-21T01:01:39;11.83;;;5.23;;
1879;SDS011;49285;49.002;8.390;2024-02-21T01:04:07;11.87;;;4.93;;
1879;SDS011;49285;49.002;8.390;2024-02-21T01:06:34;7.13;;;4.50;;
1879;SDS011;49285;49.002;8.390;2024-02-21T01:08:59;8.17;;;4.60;;
1879;SDS011;49285;49.002;8.390;2024-02-21T01:11:25;8.87;;;4.40;;
1879;SDS011;49285;49.002;8.390;2024-02-21T01:13:50;12.07;;;5.70;;
1879;SDS011;49285;49.002;8.390;2024-02-21T01:16:16;10.53;;;4.67;;
1879;SDS011;49285;49.002;8.390;2024-02-21T01:18:41;9.97;;;4.77;;
1879;SDS011;49285;49.002;8.390;2024-02-21T01:21:07;11.20;;;4.57;;
1879;SDS011;49285;49.002;8.390;2024-02-21T01:23:36;12.80;;;5.10;;
1879;SDS011;49285;49.002;8.390;2024-02-21T01:26:02;9.10;;;4.67;;
1879;SDS011;49285;49.002;8.390;2024-02-21T01:28:28;12.40;;;4.60;;
1879;SDS011;49285;49.002;8.390;2024-02-21T01:30:54;11.80;;;5.07;;
1879;SDS011;49285;49.002;8.390;2024-02-21T01:33:19;12.70;;;4.10;;
1879;SDS011;49285;49.002;8.390;2024-02-21T01:35:45;13.93;;;4.23;;
1879;SDS011;49285;49.002;8.390;2024-02-21T01:38:12;10.93;;;4.53;;
1879;SDS011;49285;49.002;8.390;2024-02-21T01:40:38;12.13;;;4.70;;
1879;SDS011;49285;49.002;8.390;2024-02-21T01:43:03;9.27;;;4.50;;
1879;SDS011;49285;49.002;8.390;2024-02-21T01:45:40;10.33;;;4.23;;
1879;SDS011;49285;49.002;8.390;2024-02-21T01:48:05;11.10;;;4.23;;
1879;SDS011;49285;49.002;8.390;2024-02-21T01:50:31;10.60;;;4.67;;
1879;SDS011;49285;49.002;8.390;2024-02-21T01:52:58;12.47;;;3.93;;
1879;SDS011;49285;49.002;8.390;2024-02-21T01:55:24;12.93;;;4.97;;
1879;SDS011;49285;49.002;8.390;2024-02-21T01:57:49;7.67;;;3.83;;
1879;SDS011;49285;49.002;8.390;2024-02-21T02:00:15;10.03;;;4.47;;
1879;SDS011;49285;49.002;8.390;2024-02-21T02:02:41;9.60;;;3.90;;
1879;SDS011;49285;49.002;8.390;2024-02-21T02:05:07;9.70;;;3.90;;
1879;SDS011;49285;49.002;8.390;2024-02-21T02:07:33;9.07;;;4.00;;
1879;SDS011;49285;49.002;8.390;2024-02-21T02:09:59;7.97;;;4.40;;
1879;SDS011;49285;49.002;8.390;2024-02-21T02:12:24;9.27;;;4.00;;
1879;SDS011;49285;49.002;8.390;2024-02-21T02:15:00;18.30;;;5.00;;
1879;SDS011;49285;49.002;8.390;2024-02-21T02:17:29;9.70;;;5.20;;
1879;SDS011;49285;49.002;8.390;2024-02-21T02:19:55;9.17;;;4.40;;
1879;SDS011;49285;49.002;8.390;2024-02-21T02:22:22;8.13;;;4.40;;
1879;SDS011;49285;49.002;8.390;2024-02-21T02:24:52;12.53;;;4.70;;
1879;SDS011;49285;49.002;8.390;2024-02-21T02:27:18;7.43;;;4.03;;
1879;SDS011;49285;49.002;8.390;2024-02-21T02:29:44;11.53;;;4.80;;
1879;SDS011;49285;49.002;8.390;2024-02-21T02:32:09;10.40;;;4.97;;
1879;SDS011;49285;49.002;8.390;2024-02-21T02:34:35;16.97;;;5.67;;
1879;SDS011;49285;49.002;8.390;2024-02-21T02:37:01;12.03;;;4.43;;
1879;SDS011;49285;49.002;8.390;2024-02-21T02:39:26;14.43;;;4.97;;
1879;SDS011;49285;49.002;8.390;2024-02-21T02:41:52;7.80;;;4.43;;
1879;SDS011;49285;49.002;8.390;2024-02-21T02:44:18;7.40;;;4.43;;
1879;SDS011;49285;49.002;8.390;2024-02-21T02:46:43;9.40;;;4.13;;
1879;SDS011;49285;49.002;8.390;2024-02-21T02:49:09;7.70;;;4.50;;
1879;SDS011;49285;49.002;8.390;2024-02-21T02:51:34;6.90;;;4.33;;
1879;SDS011;49285;49.002;8.390;2024-02-21T02:54:00;6.97;;;4.20;;
1879;SDS011;49285;49.002;8.390;2024-02-21T02:56:26;10.43;;;4.40;;
1879;SDS011;49285;49.002;8.390;2024-02-21T02:58:52;9.87;;;4.83;;
1879;SDS011;49285;49.002;8.390;2024-02-21T03:01:17;7.50;;;4.13;;
1879;SDS011;49285;49.002;8.390;2024-02-21T03:03:43;7.60;;;4.53;;
1879;SDS011;49285;49.002;8.390;2024-02-21T03:06:10;10.97;;;4.37;;
1879;SDS011;49285;49.002;8.390;2024-02-21T03:08:36;8.83;;;4.43;;
1879;SDS011;49285;49.002;8.390;2024-02-21T03:11:01;9.47;;;4.17;;
1879;SDS011;49285;49.002;8.390;2024-02-21T03:13:27;7.77;;;4.63;;
1879;SDS011;49285;49.002;8.390;2024-02-21T03:15:52;6.53;;;3.90;;
1879;SDS011;49285;49.002;8.390;2024-02-21T03:18:18;10.83;;;4.90;;
1879;SDS011;49285;49.002;8.390;2024-02-21T03:20:43;11.60;;;4.40;;
1879;SDS011;49285;49.002;8.390;2024-02-21T03:23:09;10.63;;;4.43;;
1879;SDS011;49285;49.002;8.390;2024-02-21T03:25:35;13.53;;;5.10;;
1879;SDS011;49285;49.002;8.390;2024-02-21T03:28:00;10.47;;;4.20;;
1879;SDS011;49285;49.002;8.390;2024-02-21T03:30:26;7.47;;;4.40;;
1879;SDS011;49285;49.002;8.390;2024-02-21T03:32:52;13.60;;;5.10;;
1879;SDS011;49285;49.002;8.390;2024-02-21T03:35:18;8.40;;;4.83;;
1879;SDS011;49285;49.002;8.390;2024-02-21T03:37:44;8.67;;;4.50;;
1879;SDS011;49285;49.002;8.390;2024-02-21T03:40:10;10.47;;;4.80;;
1879;SDS011;49285;49.002;8.390;2024-02-21T03:42:37;10.20;;;4.20;;
1879;SDS011;49285;49.002;8.390;2024-02-21T03:45:03;11.60;;;4.60;;
1879;SDS011;49285;49.002;8.390;2024-02-21T03:47:29;10.50;;;4.27;;
1879;SDS011;49285;49.002;8.390;2024-02-21T03:49:54;11.70;;;5.07;;
1879;SDS011;49285;49.002;8.390;2024-02-21T03:52:20;8.67;;;4.30;;
1879;SDS011;49285;49.002;8.390;2024-02-21T03:54:46;11.70;;;4.97;;
1879;SDS011;49285;49.002;8.390;2024-02-21T03:57:11;9.93;;;3.70;;
1879;SDS011;49285;49.002;8.390;2024-02-21T03:59:37;8.50;;;4.67;;
1879;SDS011;49285;49.002;8.390;2024-02-21T04:02:05;16.97;;;4.83;;
1879;SDS011;49285;49.002;8.390;2024-02-21T04:04:33;7.90;;;4.43;;
1879;SDS011;49285;49.002;8.390;2024-02-21T04:07:02;11.97;;;4.63;;
1879;SDS011;49285;49.002;8.390;2024-02-21T04:09:32;13.50;;;4.17;;
1879;SDS011;49285;49.002;8.390;2024-02-21T04:11:58;16.40;;;5.13;;
1879;SDS011;49285;49.002;8.390;2024-02-21T04:14:24;8.13;;;3.87;;
1879;SDS011;49285;49.002;8.390;2024-02-21T04:16:50;10.43;;;4.60;;
1879;SDS011;49285;49.002;8.390;2024-02-21T04:19:15;7.20;;;4.23;;
1879;SDS011;49285;49.002;8.390;2024-02-21T04:21:41;9.07;;;4.83;;
1879;SDS011;49285;49.002;8.390;2024-02-21T04:24:07;13.27;;;4.70;;
1879;SDS011;49285;49.002;8.390;2024-02-21T04:26:33;8.30;;;4.90;;
1879;SDS011;49285;49.002;8.390;2024-02-21T04:28:59;13.70;;;5.23;;
1879;SDS011;49285;49.002;8.390;2024-02-21T04:31:24;11.63;;;5.50;;
1879;SDS011;49285;49.002;8.390;2024-02-21T04:33:50;9.30;;;5.30;;
1879;SDS011;49285;49.002;8.390;2024-02-21T04:36:16;9.43;;;4.53;;
1879;SDS011;49285;49.002;8.390;2024-02-21T04:38:41;12.17;;;4.80;;
1879;SDS011;49285;49.002;8.390;2024-02-21T04:41:07;15.63;;;5.57;;
1879;SDS011;49285;49.002;8.390;2024-02-21T04:43:33;9.87;;;5.17;;
1879;SDS011;49285;49.002;8.390;2024-02-21T04:45:58;10.03;;;4.80;;
1879;SDS011;49285;49.002;8.390;2024-02-21T04:48:25;12.10;;;7.13;;
1879;SDS011;49285;49.002;8.390;2024-02-21T04:50:51;11.33;;;4.37;;
1879;SDS011;49285;49.002;8.390;2024-02-21T04:53:16;10.93;;;4.53;;
1879;SDS011;49285;49.002;8.390;2024-02-21T04:55:42;10.27;;;5.23;;
1879;SDS011;49285;49.002;8.390;2024-02-21T04:58:08;11.80;;;5.53;;
1879;SDS011;49285;49.002;8.390;2024-02-21T05:00:33;15.47;;;5.20;;
1879;SDS011;49285;49.002;8.390;2024-02-21T05:02:59;15.00;;;5.20;;
1879;SDS011;49285;49.002;8.390;2024-02-21T05:05:25;14.17;;;5.10;;
1879;SDS011;49285;49.002;8.390;2024-02-21T05:07:50;11.70;;;5.37;;
1879;SDS011;49285;49.002;8.390;2024-02-21T05:10:16;9.10;;;4.83;;
1879;SDS011;49285;49.002;8.390;2024-02-21T05:12:42;14.53;;;5.80;;
1879;SDS011;49285;49.002;8.390;2024-02-21T05:15:08;10.80;;;5.07;;
1879;SDS011;49285;49.002;8.390;2024-02-21T05:17:33;10.97;;;5.10;;
1879;SDS011;49285;49.002;8.390;2024-02-21T05:19:59;14.10;;;5.80;;
1879;SDS011;49285;49.002;8.390;2024-02-21T05:22:24;7.23;;;4.17;;
1879;SDS011;49285;49.002;8.390;2024-02-21T05:24:50;11.43;;;5.43;;
1879;SDS011;49285;49.002;8.390;2024-02-21T05:27:16;14.10;;;5.50;;
1879;SDS011;49285;49.002;8.390;2024-02-21T05:29:41;13.90;;;6.20;;
1879;SDS011;49285;49.002;8.390;2024-02-21T05:32:07;13.33;;;5.80;;
1879;SDS011;49285;49.002;8.390;2024-02-21T05:34:32;14.03;;;5.67;;
1879;SDS011;49285;49.002;8.390;2024-02-21T05:36:58;15.13;;;5.17;;
1879;SDS011;49285;49.002;8.390;2024-02-21T05:39:25;11.50;;;5.37;;
1879;SDS011;49285;49.002;8.390;2024-02-21T05:41:50;9.50;;;4.77;;
1879;SDS011;49285;49.002;8.390;2024-02-21T05:44:16;9.30;;;5.37;;
1879;SDS011;49285;49.002;8.390;2024-02-21T05:46:42;7.97;;;4.73;;
1879;SDS011;49285;49.002;8.390;2024-02-21T05:49:07;10.80;;;4.60;;
1879;SDS011;49285;49.002;8.390;2024-02-21T05:51:33;12.53;;;5.53;;
1879;SDS011;49285;49.002;8.390;2024-02-21T05:53:59;18.63;;;5.67;;
1879;SDS011;49285;49.002;8.390;2024-02-21T05:56:25;11.03;;;4.63;;
1879;SDS011;49285;49.002;8.390;2024-02-21T05:58:51;13.93;;;5.23;;
1879;SDS011;49285;49.002;8.390;2024-02-21T06:01:17;10.43;;;4.33;;
1879;SDS011;49285;49.002;8.390;2024-02-21T06:03:46;6.17;;;4.13;;
1879;SDS011;49285;49.002;8.390;2024-02-21T06:06:12;8.20;;;4.80;;
1879;SDS011;49285;49.002;8.390;2024-02-21T06:08:39;16.57;;;5.17;;
1879;SDS011;49285;49.002;8.390;2024-02-21T06:11:06;11.90;;;5.30;;
1879;SDS011;49285;49.002;8.390;2024-02-21T06:13:31;7.70;;;5.23;;
1879;SDS011;49285;49.002;8.390;2024-02-21T06:15:57;10.63;;;4.83;;
1879;SDS011;49285;49.002;8.390;2024-02-21T06:18:23;16.83;;;5.87;;
1879;SDS011;49285;49.002;8.390;2024-02-21T06:20:48;10.37;;;4.80;;
1879;SDS011;49285;49.002;8.390;2024-02-21T06:23:18;12.10;;;5.77;;
1879;SDS011;49285;49.002;8.390;2024-02-21T06:25:43;13.00;;;4.90;;
1879;SDS011;49285;49.002;8.390;2024-02-21T06:28:09;9.23;;;5.10;;
1879;SDS011;49285;49.002;8.390;2024-02-21T06:30:35;11.77;;;5.67;;
1879;SDS011;49285;49.002;8.390;2024-02-21T06:33:01;13.27;;;5.23;;
1879;SDS011;49285;49.002;8.390;2024-02-21T06:35:27;13.27;;;5.00;;
1879;SDS011;49285;49.002;8.390;2024-02-21T06:37:54;11.37;;;6.00;;
1879;SDS011;49285;49.002;8.390;2024-02-21T06:40:23;9.30;;;5.57;;
1879;SDS011;49285;49.002;8.390;2024-02-21T06:42:49;11.50;;;5.23;;
1879;SDS011;49285;49.002;8.390;2024-02-21T06:45:15;11.73;;;4.93;;
1879;SDS011;49285;49.002;8.390;2024-02-21T06:47:42;11.80;;;5.00;;
1879;SDS011;49285;49.002;8.390;2024-02-21T06:50:08;11.90;;;5.10;;
1879;SDS011;49285;49.002;8.390;2024-02-21T06:52:34;14.80;;;5.17;;
1879;SDS011;49285;49.002;8.390;2024-02-21T06:55:00;7.67;;;4.77;;
1879;SDS011;49285;49.002;8.390;2024-02-21T06:57:28;9.53;;;4.60;;
1879;SDS011;49285;49.002;8.390;2024-02-21T06:59:54;11.50;;;5.90;;
1879;SDS011;49285;49.002;8.390;2024-02-21T07:02:20;10.90;;;5.87;;
1879;SDS011;49285;49.002;8.390;2024-02-21T07:04:46;11.50;;;5.23;;
1879;SDS011;49285;49.002;8.390;2024-02-21T07:07:12;8.80;;;5.33;;
1879;SDS011;49285;49.002;8.390;2024-02-21T07:09:38;11.27;;;5.50;;
1879;SDS011;49285;49.002;8.390;2024-02-21T07:12:04;9.37;;;5.17;;
1879;SDS011;49285;49.002;8.390;2024-02-21T07:14:30;9.50;;;4.97;;
1879;SDS011;49285;49.002;8.390;2024-02-21T07:16:57;19.43;;;4.80;;
1879;SDS011;49285;49.002;8.390;2024-02-21T07:19:23;14.80;;;5.20;;
1879;SDS011;49285;49.002;8.390;2024-02-21T07:21:48;10.80;;;4.87;;
1879;SDS011;49285;49.002;8.390;2024-02-21T07:24:14;9.70;;;5.27;;
1879;SDS011;49285;49.002;8.390;2024-02-21T07:26:43;11.87;;;5.53;;
1879;SDS011;49285;49.002;8.390;2024-02-21T07:29:09;14.70;;;5.53;;
1879;SDS011;49285;49.002;8.390;2024-02-21T07:31:38;10.33;;;4.50;;
1879;SDS011;49285;49.002;8.390;2024-02-21T07:34:07;15.07;;;5.30;;
1879;SDS011;49285;49.002;8.390;2024-02-21T07:36:33;9.17;;;5.47;;
1879;SDS011;49285;49.002;8.390;2024-02-21T07:38:59;9.50;;;4.60;;
1879;SDS011;49285;49.002;8.390;2024-02-21T07:41:25;10.67;;;4.93;;
1879;SDS011;49285;49.002;8.390;2024-02-21T07:43:51;6.60;;;4.23;;
1879;SDS011;49285;49.002;8.390;2024-02-21T07:46:17;14.50;;;5.50;;
1879;SDS011;49285;49.002;8.390;2024-02-21T07:48:44;10.40;;;5.10;;
1879;SDS011;49285;49.002;8.390;2024-02-21T07:51:10;12.13;;;4.43;;
1879;SDS011;49285;49.002;8.390;2024-02-21T07:53:36;7.80;;;3.93;;
1879;SDS011;49285;49.002;8.390;2024-02-21T07:56:03;11.33;;;6.67;;
1879;SDS011;49285;49.002;8.390;2024-02-21T07:58:29;8.67;;;5.00;;
1879;SDS011;49285;49.002;8.390;2024-02-21T08:00:55;14.00;;;5.20;;
1879;SDS011;49285;49.002;8.390;2024-02-21T08:03:20;7.80;;;4.60;;
1879;SDS011;49285;49.002;8.390;2024-02-21T08:05:46;10.43;;;5.40;;
1879;SDS011;49285;49.002;8.390;2024-02-21T08:08:12;11.03;;;5.63;;
1879;SDS011;49285;49.002;8.390;2024-02-21T08:10:43;12.87;;;5.20;;
1879;SDS011;49285;49.002;8.390;2024-02-21T08:13:08;7.13;;;4.63;;
1879;SDS011;49285;49.002;8.390;2024-02-21T08:15:34;9.43;;;5.40;;
1879;SDS011;49285;49.002;8.390;2024-02-21T08:18:00;9.63;;;4.80;;
1879;SDS011;49285;49.002;8.390;2024-02-21T08:20:26;11.43;;;4.30;;
1879;SDS011;49285;49.002;8.390;2024-02-21T08:22:52;7.80;;;4.33;;
1879;SDS011;49285;49.002;8.390;2024-02-21T08:25:18;9.67;;;5.00;;
1879;SDS011;49285;49.002;8.390;2024-02-21T08:27:43;9.43;;;4.83;;
1879;SDS011;49285;49.002;8.390;2024-02-21T08:30:10;15.60;;;6.00;;
1879;SDS011;49285;49.002;8.390;2024-02-21T08:32:36;10.37;;;4.70;;
1879;SDS011;49285;49.002;8.390;2024-02-21T08:35:02;11.93;;;4.80;;
1879;SDS011;49285;49.002;8.390;2024-02-21T08:37:28;9.50;;;5.07;;
1879;SDS011;49285;49.002;8.390;2024-02-21T08:39:53;13.10;;;5.10;;
1879;SDS011;49285;49.002;8.390;2024-02-21T08:42:19;7.20;;;4.57;;
1879;SDS011;49285;49.002;8.390;2024-02-21T08:44:45;10.07;;;5.03;;
1879;SDS011;49285;49.002;8.390;2024-02-21T08:47:10;8.50;;;4.47;;
1879;SDS011;49285;49.002;8.390;2024-02-21T08:49:37;8.93;;;4.70;;
1879;SDS011;49285;49.002;8.390;2024-02-21T08:52:03;13.90;;;5.50;;
1879;SDS011;49285;49.002;8.390;2024-02-21T08:54:30;8.60;;;5.07;;
1879;SDS011;49285;49.002;8.390;2024-02-21T08:56:56;15.97;;;5.23;;
1879;SDS011;49285;49.002;8.390;2024-02-21T08:59:21;11.13;;;4.90;;
1879;SDS011;49285;49.002;8.390;2024-02-21T09:01:47;8.53;;;5.33;;
1879;SDS011;49285;49.002;8.390;2024-02-21T09:04:13;14.40;;;5.20;;
1879;SDS011;49285;49.002;8.390;2024-02-21T09:06:38;10.80;;;4.47;;
1879;SDS011;49285;49.002;8.390;2024-02-21T09:09:08;10.40;;;4.50;;
1879;SDS011;49285;49.002;8.390;2024-02-21T09:11:34;15.20;;;8.47;;
1879;SDS011;49285;49.002;8.390;2024-02-21T09:14:00;9.60;;;5.23;;
1879;SDS011;49285;49.002;8.390;2024-02-21T09:16:26;10.63;;;4.37;;
1879;SDS011;49285;49.002;8.390;2024-02-21T09:18:51;10.23;;;4.80;;
1879;SDS011;49285;49.002;8.390;2024-02-21T09:21:17;9.33;;;4.87;;
1879;SDS011;49285;49.002;8.390;2024-02-21T09:23:43;9.33;;;4.53;;
1879;SDS011;49285;49.002;8.390;2024-02-21T09:26:10;6.30;;;3.70;;
1879;SDS011;49285;49.002;8.390;2024-02-21T09:28:38;8.67;;;4.63;;
1879;SDS011;49285;49.002;8.390;2024-02-21T09:31:04;9.60;;;4.60;;
1879;SDS011;49285;49.002;8.390;2024-02-21T09:33:30;12.97;;;4.67;;
1879;SDS011;49285;49.002;8.390;2024-02-21T09:35:55;8.60;;;3.83;;
1879;SDS011;49285;49.002;8.390;2024-02-21T09:38:21;7.67;;;4.13;;
1879;SDS011;49285;49.002;8.390;2024-02-21T09:40:47;13.67;;;4.77;;
1879;SDS011;49285;49.002;8.390;2024-02-21T09:43:15;9.87;;;4.10;;
1879;SDS011;49285;49.002;8.390;2024-02-21T09:45:42;8.83;;;3.83;;
1879;SDS011;49285;49.002;8.390;2024-02-21T09:48:19;14.00;;;3.80;;
1879;SDS011;49285;49.002;8.390;2024-02-21T09:51:08;9.77;;;4.30;;
1879;SDS011;49285;49.002;8.390;2024-02-21T09:53:35;7.83;;;4.07;;
1879;SDS011;49285;49.002;8.390;2024-02-21T09:56:03;7.03;;;4.10;;
1879;SDS011;49285;49.002;8.390;2024-02-21T09:58:32;8.03;;;4.07;;
1879;SDS011;49285;49.002;8.390;2024-02-21T10:00:59;9.60;;;4.20;;
1879;SDS011;49285;49.002;8.390;2024-02-21T10:03:25;11.27;;;3.97;;
1879;SDS011;49285;49.002;8.390;2024-02-21T10:05:51;16.03;;;5.17;;
1879;SDS011;49285;49.002;8.390;2024-02-21T10:08:16;10.47;;;4.57;;
1879;SDS011;49285;49.002;8.390;2024-02-21T10:10:43;9.10;;;3.60;;
1879;SDS011;49285;49.002;8.390;2024-02-21T10:13:09;8.53;;;4.43;;
1879;SDS011;49285;49.002;8.390;2024-02-21T10:15:36;9.37;;;3.67;;
1879;SDS011;49285;49.002;8.390;2024-02-21T10:18:02;7.90;;;4.30;;
1879;SDS011;49285;49.002;8.390;2024-02-21T10:20:32;9.83;;;4.77;;
1879;SDS011;49285;49.002;8.390;2024-02-21T10:23:02;8.00;;;4.00;;
1879;SDS011;49285;49.002;8.390;2024-02-21T10:25:32;8.23;;;4.00;;
1879;SDS011;49285;49.002;8.390;2024-02-21T10:28:06;14.20;;;4.10;;
1879;SDS011;49285;49.002;8.390;2024-02-21T10:30:32;9.87;;;3.73;;
1879;SDS011;49285;49.002;8.390;2024-02-21T10:32:57;10.70;;;3.60;;
1879;SDS011;49285;49.002;8.390;2024-02-21T10:35:27;8.13;;;4.30;;
1879;SDS011;49285;49.002;8.390;2024-02-21T10:37:57;8.77;;;4.27;;
1879;SDS011;49285;49.002;8.390;2024-02-21T10:40:24;10.80;;;4.00;;
1879;SDS011;49285;49.002;8.390;2024-02-21T10:42:56;7.33;;;3.43;;
1879;SDS011;49285;49.002;8.390;2024-02-21T10:45:34;10.00;;;4.40;;
1879;SDS011;49285;49.002;8.390;2024-02-21T10:48:15;10.73;;;3.90;;
1879;SDS011;49285;49.002;8.390;2024-02-21T10:56:07;8.43;;;3.80;;
1879;SDS011;49285;49.002;8.390;2024-02-21T10:58:48;11.80;;;3.50;;
1879;SDS011;49285;49.002;8.390;2024-02-21T11:01:14;5.07;;;2.90;;
1879;SDS011;49285;49.002;8.390;2024-02-21T11:03:43;8.50;;;3.27;;
1879;SDS011;49285;49.002;8.390;2024-02-21T11:06:11;8.47;;;3.27;;
1879;SDS011;49285;49.002;8.390;2024-02-21T11:08:38;5.50;;;2.90;;
1879;SDS011;49285;49.002;8.390;2024-02-21T11:11:04;7.50;;;3.63;;
1879;SDS011;49285;49.002;8.390;2024-02-21T11:13:31;7.67;;;3.60;;
1879;SDS011;49285;49.002;8.390;2024-02-21T11:16:10;6.93;;;3.03;;
1879;SDS011;49285;49.002;8.390;2024-02-21T11:18:45;6.67;;;2.63;;
1879;SDS011;49285;49.002;8.390;2024-02-21T11:21:11;8.80;;;3.27;;
1879;SDS011;49285;49.002;8.390;2024-02-21T11:23:37;7.87;;;3.70;;
1879;SDS011;49285;49.002;8.390;2024-02-21T11:26:08;11.87;;;3.40;;
1879;SDS011;49285;49.002;8.390;2024-02-21T11:28:35;6.17;;;3.40;;
1879;SDS011;49285;49.002;8.390;2024-02-21T11:31:22;9.00;;;3.30;;
1879;SDS011;49285;49.002;8.390;2024-02-21T11:33:47;9.60;;;3.70;;
1879;SDS011;49285;49.002;8.390;2024-02-21T11:36:23;5.53;;;3.03;;
1879;SDS011;49285;49.002;8.390;2024-02-21T11:38:50;8.33;;;3.40;;
1879;SDS011;49285;49.002;8.390;2024-02-21T11:41:16;7.03;;;3.20;;
1879;SDS011;49285;49.002;8.390;2024-02-21T11:43:42;8.40;;;2.77;;
1879;SDS011;49285;49.002;8.390;2024-02-21T11:46:08;4.80;;;2.90;;
1879;SDS011;49285;49.002;8.390;2024-02-21T11:48:34;5.57;;;2.67;;
1879;SDS011;49285;49.002;8.390;2024-02-21T11:50:59;7.03;;;3.13;;
1879;SDS011;49285;49.002;8.390;2024-02-21T11:53:25;7.90;;;3.37;;
1879;SDS011;49285;49.002;8.390;2024-02-21T11:55:55;5.63;;;2.83;;
1879;SDS011;49285;49.002;8.390;2024-02-21T11:58:21;6.03;;;3.13;;
1879;SDS011;49285;49.002;8.390;2024-02-21T12:00:47;7.47;;;2.93;;
1879;SDS011;49285;49.002;8.390;2024-02-21T12:03:14;4.80;;;2.80;;
1879;SDS011;49285;49.002;8.390;2024-02-21T12:05:40;9.60;;;3.50;;
1879;SDS011;49285;49.002;8.390;2024-02-21T12:08:06;8.83;;;3.37;;
1879;SDS011;49285;49.002;8.390;2024-02-21T12:10:32;11.27;;;3.30;;
1879;SDS011;49285;49.002;8.390;2024-02-21T12:13:09;7.37;;;3.17;;
1879;SDS011;49285;49.002;8.390;2024-02-21T12:15:35;8.77;;;3.50;;
1879;SDS011;49285;49.002;8.390;2024-02-21T12:18:00;12.03;;;3.57;;
1879;SDS011;49285;49.002;8.390;2024-02-21T12:20:26;6.83;;;3.37;;
1879;SDS011;49285;49.002;8.390;2024-02-21T12:22:52;8.20;;;3.93;;
1879;SDS011;49285;49.002;8.390;2024-02-21T12:25:19;4.23;;;2.40;;
1879;SDS011;49285;49.002;8.390;2024-02-21T12:27:47;7.40;;;3.10;;
1879;SDS011;49285;49.002;8.390;2024-02-21T12:30:14;11.47;;;4.23;;
1879;SDS011;49285;49.002;8.390;2024-02-21T12:32:40;5.83;;;3.67;;
1879;SDS011;49285;49.002;8.390;2024-02-21T12:35:06;5.90;;;3.30;;
1879;SDS011;49285;49.002;8.390;2024-02-21T12:37:32;8.17;;;3.43;;
1879;SDS011;49285;49.002;8.390;2024-02-21T12:39:58;6.50;;;3.17;;
1879;SDS011;49285;49.002;8.390;2024-02-21T12:42:24;7.90;;;4.07;;
1879;SDS011;49285;49.002;8.390;2024-02-21T12:44:50;10.30;;;4.40;;
1879;SDS011;49285;49.002;8.390;2024-02-21T12:47:17;8.50;;;3.33;;
1879;SDS011;49285;49.002;8.390;2024-02-21T12:49:44;5.80;;;3.10;;
1879;SDS011;49285;49.002;8.390;2024-02-21T12:52:10;6.63;;;3.80;;
1879;SDS011;49285;49.002;8.390;2024-02-21T12:54:36;7.63;;;3.60;;
1879;SDS011;49285;49.002;8.390;2024-02-21T12:57:02;7.83;;;4.00;;
1879;SDS011;49285;49.002;8.390;2024-02-21T12:59:28;7.23;;;3.43;;
1879;SDS011;49285;49.002;8.390;2024-02-21T13:01:54;7.00;;;3.23;;
1879;SDS011;49285;49.002;8.390;2024-02-21T13:04:20;8.03;;;3.30;;
1879;SDS011;49285;49.002;8.390;2024-02-21T13:06:47;7.93;;;3.40;;
1879;SDS011;49285;49.002;8.390;2024-02-21T13:09:13;8.00;;;3.53;;
1879;SDS011;49285;49.002;8.390;2024-02-21T13:11:39;6.77;;;3.30;;
1879;SDS011;49285;49.002;8.390;2024-02-21T13:14:06;20.13;;;4.93;;
1879;SDS011;49285;49.002;8.390;2024-02-21T13:16:31;4.03;;;3.00;;
1879;SDS011;49285;49.002;8.390;2024-02-21T13:19:04;7.73;;;4.20;;
1879;SDS011;49285;49.002;8.390;2024-02-21T13:21:35;7.83;;;3.87;;
1879;SDS011;49285;49.002;8.390;2024-02-21T13:24:01;6.77;;;3.90;;
1879;SDS011;49285;49.002;8.390;2024-02-21T13:26:27;5.53;;;3.23;;
1879;SDS011;49285;49.002;8.390;2024-02-21T13:28:53;7.23;;;3.50;;
1879;SDS011;49285;49.002;8.390;2024-02-21T13:31:19;6.20;;;3.50;;
1879;SDS011;49285;49.002;8.390;2024-02-21T13:33:45;9.70;;;3.83;;
1879;SDS011;49285;49.002;8.390;2024-02-21T13:36:11;6.13;;;4.00;;
1879;SDS011;49285;49.002;8.390;2024-02-21T13:38:37;7.20;;;3.30;;
1879;SDS011;49285;49.002;8.390;2024-02-21T13:41:03;9.47;;;3.53;;
1879;SDS011;49285;49.002;8.390;2024-02-21T13:43:32;4.93;;;2.93;;
1879;SDS011;49285;49.002;8.390;2024-02-21T13:45:59;5.20;;;3.70;;
1879;SDS011;49285;49.002;8.390;2024-02-21T13:48:27;7.53;;;3.47;;
1879;SDS011;49285;49.002;8.390;2024-02-21T13:50:54;9.77;;;3.50;;
1879;SDS011;49285;49.002;8.390;2024-02-21T13:53:20;5.67;;;3.40;;
1879;SDS011;49285;49.002;8.390;2024-02-21T13:55:46;4.20;;;3.10;;
1879;SDS011;49285;49.002;8.390;2024-02-21T13:58:12;5.87;;;3.60;;
1879;SDS011;49285;49.002;8.390;2024-02-21T14:00:37;4.10;;;3.00;;
1879;SDS011;49285;49.002;8.390;2024-02-21T14:03:03;6.37;;;3.87;;
1879;SDS011;49285;49.002;8.390;2024-02-21T14:05:28;6.83;;;3.40;;
1879;SDS011;49285;49.002;8.390;2024-02-21T14:07:55;10.13;;;3.50;;
1879;SDS011;49285;49.002;8.390;2024-02-21T14:10:21;5.57;;;3.10;;
1879;SDS011;49285;49.002;8.390;2024-02-21T14:12:47;8.17;;;3.30;;
1879;SDS011;49285;49.002;8.390;2024-02-21T14:15:13;8.07;;;3.80;;
1879;SDS011;49285;49.002;8.390;2024-02-21T14:17:39;8.57;;;3.60;;
1879;SDS011;49285;49.002;8.390;2024-02-21T14:20:05;8.23;;;4.00;;
1879;SDS011;49285;49.002;8.390;2024-02-21T14:22:32;4.73;;;3.03;;
1879;SDS011;49285;49.002;8.390;2024-02-21T14:24:59;14.93;;;4.17;;
1879;SDS011;49285;49.002;8.390;2024-02-21T14:27:25;6.83;;;3.63;;
1879;SDS011;49285;49.002;8.390;2024-02-21T14:29:51;7.47;;;3.50;;
1879;SDS011;49285;49.002;8.390;2024-02-21T14:32:16;14.70;;;7.30;;
1879;SDS011;49285;49.002;8.390;2024-02-21T14:34:42;9.73;;;4.67;;
1879;SDS011;49285;49.002;8.390;2024-02-21T14:37:07;10.63;;;4.03;;
1879;SDS011;49285;49.002;8.390;2024-02-21T14:39:33;6.00;;;3.73;;
1879;SDS011;49285;49.002;8.390;2024-02-21T14:42:00;7.70;;;4.20;;
1879;SDS011;49285;49.002;8.390;2024-02-21T14:44:26;7.60;;;3.90;;
1879;SDS011;49285;49.002;8.390;2024-02-21T14:46:52;5.30;;;3.00;;
1879;SDS011;49285;49.002;8.390;2024-02-21T14:49:18;8.93;;;4.27;;
1879;SDS011;49285;49.002;8.390;2024-02-21T14:51:44;7.60;;;3.70;;
1879;SDS011;49285;49.002;8.390;2024-02-21T14:54:10;6.30;;;3.20;;
1879;SDS011;49285;49.002;8.390;2024-02-21T14:56:36;12.27;;;4.90;;